createdAt,value
2018-12-26T00:01:48.151Z,11.80
2018-12-26T00:04:18.034Z,9.60
2018-12-26T00:06:47.903Z,9.27
2018-12-26T00:09:36.769Z,11.07
2018-12-26T00:12:25.576Z,9.53
2018-12-26T00:15:07.097Z,9.80
2018-12-26T00:17:48.483Z,10.33
2018-12-26T00:20:29.606Z,10.23
2018-12-26T00:23:11.067Z,10.70
2018-12-26T00:26:01.451Z,11.60
2018-12-26T00:28:36.508Z,11.43
2018-12-26T00:31:06.476Z,11.43
2018-12-26T00:33:55.291Z,10.13
2018-12-26T00:36:36.464Z,10.43
2018-12-26T00:39:17.751Z,9.70
2018-12-26T00:41:47.733Z,10.57
2018-12-26T00:44:17.611Z,9.00
2018-12-26T00:47:06.709Z,9.27
2018-12-26T00:49:55.503Z,8.33
2018-12-26T00:52:36.831Z,8.63
2018-12-26T00:55:18.104Z,8.70
2018-12-26T00:57:59.607Z,9.70
2018-12-26T01:00:41.155Z,10.37
2018-12-26T01:03:11.138Z,11.27
2018-12-26T01:05:59.931Z,10.40
2018-12-26T01:08:41.277Z,9.97
2018-12-26T01:11:22.524Z,10.33
2018-12-26T01:14:04.545Z,10.30
2018-12-26T01:16:45.812Z,12.87
2018-12-26T01:19:27.365Z,10.90
2018-12-26T01:22:08.944Z,8.90
2018-12-26T01:24:38.924Z,11.17
2018-12-26T01:27:27.834Z,10.17
2018-12-26T01:30:09.088Z,11.27
2018-12-26T01:32:50.584Z,10.73
2018-12-26T01:35:20.671Z,9.90
2018-12-26T01:41:09.610Z,12.53
2018-12-26T01:43:51.140Z,12.83
2018-12-26T01:46:21.143Z,10.93
2018-12-26T01:49:09.961Z,9.73
2018-12-26T01:51:40.028Z,13.07
2018-12-26T01:54:28.887Z,11.03
2018-12-26T01:56:58.924Z,14.53
2018-12-26T01:59:28.831Z,11.90
2018-12-26T02:02:17.672Z,13.27
2018-12-26T02:05:06.592Z,14.77
2018-12-26T02:07:48.299Z,11.37
2018-12-26T02:10:29.601Z,11.53
2018-12-26T02:12:59.571Z,11.40
2018-12-26T02:15:29.497Z,12.40
2018-12-26T02:18:18.383Z,11.80
2018-12-26T02:21:07.260Z,13.43
2018-12-26T02:23:37.204Z,11.83
2018-12-26T02:26:26.128Z,11.93
2018-12-26T02:29:07.557Z,13.07
2018-12-26T02:31:48.948Z,11.77
2018-12-26T02:34:30.570Z,11.43
2018-12-26T02:37:00.571Z,10.03
2018-12-26T02:39:49.425Z,11.97
2018-12-26T02:42:19.413Z,9.47
2018-12-26T02:45:08.277Z,10.23
2018-12-26T02:47:38.138Z,10.20
2018-12-26T02:50:26.979Z,9.70
2018-12-26T02:53:15.823Z,11.13
2018-12-26T02:55:57.157Z,9.77
2018-12-26T02:58:38.489Z,10.80
2018-12-26T03:01:20.351Z,10.43
2018-12-26T03:04:01.582Z,10.63
2018-12-26T03:06:31.632Z,10.23
2018-12-26T03:09:20.432Z,11.77
2018-12-26T03:12:01.913Z,10.27
2018-12-26T03:14:31.872Z,12.80
2018-12-26T03:17:01.739Z,12.83
2018-12-26T03:19:50.632Z,11.33
2018-12-26T03:22:39.437Z,10.67
2018-12-26T03:25:09.542Z,11.27
2018-12-26T03:27:58.322Z,10.63
2018-12-26T03:30:47.189Z,10.37
2018-12-26T03:33:28.229Z,12.03
2018-12-26T03:36:09.387Z,11.33
2018-12-26T03:38:39.609Z,12.53
2018-12-26T03:41:48.765Z,10.70
2018-12-26T03:44:37.877Z,11.60
2018-12-26T03:47:19.669Z,11.53
2018-12-26T03:49:49.680Z,12.00
2018-12-26T03:52:38.566Z,13.77
2018-12-26T03:55:27.433Z,10.77
2018-12-26T03:57:57.596Z,8.93
2018-12-26T04:00:27.547Z,9.40
2018-12-26T04:03:16.493Z,11.57
2018-12-26T04:06:05.444Z,10.73
2018-12-26T04:08:47.425Z,12.63
2018-12-26T04:11:28.934Z,11.27
2018-12-26T04:14:10.101Z,11.23
2018-12-26T04:16:51.755Z,12.27
2018-12-26T04:19:32.932Z,11.33
2018-12-26T04:22:14.246Z,11.07
2018-12-26T04:24:55.592Z,12.53
2018-12-26T04:27:37.097Z,9.73
2018-12-26T04:30:18.970Z,11.40
2018-12-26T04:33:00.833Z,10.27
2018-12-26T04:35:30.817Z,9.67
2018-12-26T04:38:19.780Z,11.50
2018-12-26T04:41:08.709Z,10.00
2018-12-26T04:43:57.542Z,9.23
2018-12-26T04:46:38.717Z,10.00
2018-12-26T04:49:20.076Z,9.77
2018-12-26T04:52:01.741Z,9.93
2018-12-26T04:54:31.944Z,10.57
2018-12-26T04:57:24.986Z,11.13
2018-12-26T05:00:03.780Z,10.43
2018-12-26T05:02:45.521Z,10.53
2018-12-26T05:05:26.812Z,8.67
2018-12-26T05:08:08.025Z,7.53
2018-12-26T05:10:38.388Z,9.33
2018-12-26T05:13:38.878Z,9.37
2018-12-26T05:16:10.021Z,7.60
2018-12-26T05:18:51.476Z,10.30
2018-12-26T05:21:33.882Z,9.23
2018-12-26T05:24:04.060Z,10.20
2018-12-26T05:29:52.316Z,10.00
2018-12-26T05:32:22.708Z,10.13
2018-12-26T05:35:11.579Z,9.40
2018-12-26T05:38:00.376Z,9.27
2018-12-26T05:40:41.696Z,8.53
2018-12-26T05:43:22.816Z,11.27
2018-12-26T05:46:04.094Z,9.47
2018-12-26T05:48:45.227Z,10.07
2018-12-26T05:51:15.204Z,8.13
2018-12-26T05:53:45.063Z,10.23
2018-12-26T05:56:14.947Z,10.37
2018-12-26T05:59:03.783Z,8.30
2018-12-26T06:01:33.679Z,8.87
2018-12-26T06:04:22.504Z,9.17
2018-12-26T06:07:03.665Z,11.70
2018-12-26T06:09:44.984Z,11.10
2018-12-26T06:12:26.244Z,10.63
2018-12-26T06:15:07.874Z,10.13
2018-12-26T06:17:49.115Z,10.70
2018-12-26T06:20:30.744Z,12.73
2018-12-26T06:23:00.646Z,12.03
2018-12-26T06:31:31.884Z,10.90
2018-12-26T06:34:02.127Z,11.30
2018-12-26T06:36:51.053Z,9.23
2018-12-26T06:39:39.883Z,12.60
2018-12-26T06:42:21.224Z,9.70
2018-12-26T06:45:02.418Z,13.07
2018-12-26T06:47:43.848Z,13.70
2018-12-26T06:50:25.409Z,11.70
2018-12-26T06:53:06.696Z,11.77
2018-12-26T06:55:47.925Z,10.20
2018-12-26T06:58:28.909Z,11.93
2018-12-26T07:04:20.399Z,11.57
2018-12-26T07:07:02.024Z,13.27
2018-12-26T07:09:43.209Z,13.57
2018-12-26T07:12:24.351Z,16.17
2018-12-26T07:15:06.063Z,12.23
2018-12-26T07:17:47.555Z,14.10
2018-12-26T07:20:28.923Z,14.40
2018-12-26T07:23:17.847Z,14.20
2018-12-26T07:25:48.440Z,13.97
2018-12-26T07:34:19.495Z,11.47
2018-12-26T07:36:50.853Z,10.87
2018-12-26T07:39:51.523Z,10.43
2018-12-26T07:42:23.160Z,8.87
2018-12-26T07:45:04.768Z,9.30
2018-12-26T07:47:46.016Z,9.20
2018-12-26T07:50:27.440Z,11.50
2018-12-26T07:53:08.700Z,9.00
2018-12-26T07:55:50.197Z,11.33
2018-12-26T07:58:31.791Z,11.60
2018-12-26T08:01:13.502Z,11.30
2018-12-26T08:03:54.601Z,11.53
2018-12-26T08:06:35.973Z,9.63
2018-12-26T08:09:17.205Z,10.60
2018-12-26T08:11:58.379Z,9.50
2018-12-26T08:14:40.047Z,9.83
2018-12-26T08:17:21.442Z,8.73
2018-12-26T08:19:51.348Z,8.70
2018-12-26T08:22:40.204Z,8.83
2018-12-26T08:25:29.087Z,8.40
2018-12-26T08:27:59.204Z,10.57
2018-12-26T08:30:47.994Z,9.33
2018-12-26T08:33:28.889Z,8.93
2018-12-26T08:35:59.095Z,7.97
2018-12-26T08:38:47.925Z,9.40
2018-12-26T08:44:27.257Z,9.03
2018-12-26T08:47:08.867Z,8.73
2018-12-26T08:52:35.832Z,10.53
2018-12-26T08:55:26.202Z,10.40
2018-12-26T08:57:57.907Z,9.10
2018-12-26T09:00:38.889Z,11.13
2018-12-26T09:03:09.132Z,10.10
2018-12-26T09:05:38.975Z,9.70
2018-12-26T09:08:28.167Z,10.67
2018-12-26T09:11:17.087Z,10.97
2018-12-26T09:13:58.519Z,10.57
2018-12-26T09:16:39.953Z,10.13
2018-12-26T09:19:21.264Z,9.20
2018-12-26T09:22:04.783Z,11.83
2018-12-26T09:24:45.820Z,10.80
2018-12-26T09:27:26.979Z,10.73
2018-12-26T09:30:07.824Z,9.17
2018-12-26T09:32:38.237Z,11.37
2018-12-26T09:35:09.325Z,11.10
2018-12-26T09:37:39.273Z,10.73
2018-12-26T09:40:28.068Z,13.00
2018-12-26T09:43:09.068Z,11.50
2018-12-26T09:45:50.506Z,11.10
2018-12-26T09:48:32.157Z,8.57
2018-12-26T09:51:13.288Z,9.93
2018-12-26T09:53:54.579Z,10.70
2018-12-26T09:56:36.176Z,12.93
2018-12-26T09:59:17.548Z,11.03
2018-12-26T10:01:58.792Z,8.80
2018-12-26T10:04:29.174Z,13.60
2018-12-26T10:07:18.085Z,13.87
2018-12-26T10:09:48.250Z,11.23
2018-12-26T10:12:37.178Z,12.90
2018-12-26T10:15:19.325Z,16.27
2018-12-26T10:17:49.478Z,15.60
2018-12-26T10:23:37.902Z,13.07
2018-12-26T10:26:19.596Z,13.10
2018-12-26T10:29:01.275Z,15.43
2018-12-26T10:31:42.677Z,14.60
2018-12-26T10:34:24.349Z,13.07
2018-12-26T10:37:05.688Z,15.30
2018-12-26T10:39:47.030Z,15.83
2018-12-26T10:42:28.354Z,16.67
2018-12-26T10:45:09.567Z,16.43
2018-12-26T10:47:50.977Z,16.30
2018-12-26T10:50:21.272Z,16.83
2018-12-26T10:53:10.125Z,15.70
2018-12-26T10:55:51.251Z,14.03
2018-12-26T10:58:32.216Z,15.13
2018-12-26T11:01:02.584Z,14.93
2018-12-26T11:03:51.440Z,16.07
2018-12-26T11:06:32.828Z,17.83
2018-12-26T11:09:14.426Z,15.37
2018-12-26T11:12:23.715Z,16.03
2018-12-26T11:18:14.864Z,15.33
2018-12-26T11:20:56.037Z,16.93
2018-12-26T11:23:26.439Z,18.33
2018-12-26T11:26:15.243Z,13.33
2018-12-26T11:28:56.243Z,15.60
2018-12-26T11:31:26.497Z,18.13
2018-12-26T11:39:55.988Z,18.40
2018-12-26T11:42:26.144Z,19.40
2018-12-26T11:48:03.105Z,17.33
2018-12-26T11:50:44.173Z,15.60
2018-12-26T11:53:15.540Z,19.67
2018-12-26T11:56:04.332Z,18.90
2018-12-26T11:58:34.264Z,16.33
2018-12-26T12:01:23.240Z,20.07
2018-12-26T12:07:05.096Z,16.30
2018-12-26T12:09:46.430Z,17.97
2018-12-26T12:12:27.648Z,22.23
2018-12-26T12:15:08.844Z,22.17
2018-12-26T12:17:50.595Z,21.40
2018-12-26T12:20:32.223Z,22.87
2018-12-26T12:23:13.777Z,22.13
2018-12-26T12:25:56.275Z,20.03
2018-12-26T12:28:38.105Z,16.50
2018-12-26T12:31:19.757Z,16.73
2018-12-26T12:34:01.295Z,19.17
2018-12-26T12:36:42.593Z,19.20
2018-12-26T12:39:23.716Z,21.67
2018-12-26T12:42:04.803Z,22.90
2018-12-26T12:44:46.377Z,23.07
2018-12-26T12:47:27.689Z,22.83
2018-12-26T12:50:09.324Z,21.83
2018-12-26T12:52:50.948Z,21.33
2018-12-26T12:55:32.525Z,21.07
2018-12-26T12:58:13.444Z,23.40
2018-12-26T13:00:54.616Z,22.50
2018-12-26T13:03:35.699Z,25.10
2018-12-26T13:06:16.997Z,25.60
2018-12-26T13:08:58.316Z,26.77
2018-12-26T13:11:39.951Z,25.23
2018-12-26T13:14:21.199Z,23.53
2018-12-26T13:17:03.027Z,24.93
2018-12-26T13:19:44.567Z,20.83
2018-12-26T13:22:26.136Z,18.97
2018-12-26T13:25:07.503Z,19.97
2018-12-26T13:27:50.100Z,19.70
2018-12-26T13:30:20.488Z,23.83
2018-12-26T13:32:50.747Z,21.40
2018-12-26T13:38:16.392Z,15.57
2018-12-26T13:40:46.399Z,19.57
2018-12-26T13:46:33.651Z,20.87
2018-12-26T13:49:10.179Z,21.27
2018-12-26T13:51:40.474Z,18.93
2018-12-26T13:57:31.701Z,21.77
2018-12-26T14:00:13.265Z,20.13
2018-12-26T14:02:54.781Z,21.40
2018-12-26T14:05:36.437Z,20.90
2018-12-26T14:08:06.627Z,22.63
2018-12-26T14:10:36.916Z,16.83
2018-12-26T14:19:16.864Z,19.83
2018-12-26T14:21:47.127Z,23.10
2018-12-26T14:27:49.444Z,18.93
2018-12-26T14:30:18.924Z,21.67
2018-12-26T14:33:00.234Z,23.13
2018-12-26T14:35:41.273Z,23.50
2018-12-26T14:38:22.712Z,20.90
2018-12-26T14:41:03.843Z,23.13
2018-12-26T14:43:45.216Z,22.10
2018-12-26T14:46:26.777Z,24.40
2018-12-26T14:52:04.328Z,20.73
2018-12-26T14:54:45.866Z,25.03
2018-12-26T14:57:27.432Z,23.30
2018-12-26T15:00:08.773Z,24.87
2018-12-26T15:02:49.932Z,22.97
2018-12-26T15:05:31.573Z,23.27
2018-12-26T15:08:12.944Z,24.83
2018-12-26T15:10:54.823Z,23.93
2018-12-26T15:16:21.735Z,25.90
2018-12-26T15:19:03.043Z,29.30
2018-12-26T15:21:44.289Z,28.43
2018-12-26T15:24:25.755Z,27.67
2018-12-26T15:27:07.492Z,29.40
2018-12-26T15:29:48.651Z,32.07
2018-12-26T15:32:29.684Z,33.30
2018-12-26T15:35:10.973Z,31.77
2018-12-26T15:37:52.045Z,35.53
2018-12-26T15:40:33.205Z,33.10
2018-12-26T15:43:14.625Z,32.93
2018-12-26T15:45:55.984Z,32.20
2018-12-26T15:48:37.413Z,32.13
2018-12-26T15:51:19.093Z,32.33
2018-12-26T15:54:00.788Z,31.97
2018-12-26T15:56:41.927Z,35.40
2018-12-26T15:59:23.560Z,33.50
2018-12-26T16:01:53.692Z,30.87
2018-12-26T16:04:23.910Z,31.53
2018-12-26T16:10:20.775Z,32.57
2018-12-26T16:12:51.500Z,28.40
2018-12-26T16:15:33.435Z,29.47
2018-12-26T16:18:14.896Z,29.00
2018-12-26T16:20:56.453Z,29.00
2018-12-26T16:23:37.629Z,28.27
2018-12-26T16:26:18.468Z,30.80
2018-12-26T16:28:48.647Z,30.47
2018-12-26T16:37:25.756Z,33.70
2018-12-26T16:40:07.396Z,30.87
2018-12-26T16:42:48.571Z,29.27
2018-12-26T16:45:29.991Z,29.87
2018-12-26T16:48:11.525Z,27.70
2018-12-26T16:50:52.596Z,28.03
2018-12-26T16:53:22.632Z,29.00
2018-12-26T16:55:52.524Z,27.63
2018-12-26T16:58:22.406Z,28.57
2018-12-26T17:00:55.147Z,27.67
2018-12-26T17:03:23.908Z,26.23
2018-12-26T17:05:53.749Z,29.20
2018-12-26T17:08:23.695Z,25.50
2018-12-26T17:10:53.575Z,26.33
2018-12-26T17:13:23.464Z,25.47
2018-12-26T17:15:53.417Z,28.70
2018-12-26T17:18:23.243Z,29.63
2018-12-26T17:20:53.085Z,35.00
2018-12-26T17:23:23.045Z,30.57
2018-12-26T17:25:53.013Z,32.33
2018-12-26T17:28:22.888Z,30.83
2018-12-26T17:30:52.833Z,29.07
2018-12-26T17:33:22.678Z,26.03
2018-12-26T17:35:52.540Z,30.43
2018-12-26T17:38:23.470Z,33.77
2018-12-26T17:40:53.292Z,27.33
2018-12-26T17:43:23.160Z,29.80
2018-12-26T17:45:53.169Z,30.53
2018-12-26T17:48:23.037Z,31.10
2018-12-26T17:50:53.055Z,29.13
2018-12-26T17:54:19.248Z,31.23
2018-12-26T17:57:05.016Z,28.27
2018-12-26T18:00:08.757Z,33.27
2018-12-26T18:02:44.868Z,31.10
2018-12-26T18:05:14.888Z,27.70
2018-12-26T18:07:44.727Z,30.67
2018-12-26T18:10:14.704Z,31.70
2018-12-26T18:12:44.649Z,39.63
2018-12-26T18:15:14.738Z,54.10
2018-12-26T18:17:44.621Z,56.00
2018-12-26T18:20:14.568Z,48.63
2018-12-26T18:22:44.399Z,53.00
2018-12-26T18:25:14.260Z,49.67
2018-12-26T18:27:44.231Z,47.10
2018-12-26T18:30:14.191Z,44.10
2018-12-26T18:32:44.112Z,47.30
2018-12-26T18:35:14.172Z,42.13
2018-12-26T18:37:44.116Z,40.20
2018-12-26T18:40:14.209Z,37.17
2018-12-26T18:42:44.230Z,39.50
2018-12-26T18:45:14.124Z,40.93
2018-12-26T18:47:43.980Z,38.13
2018-12-26T18:50:14.920Z,36.27
2018-12-26T18:52:44.779Z,33.73
2018-12-26T18:55:14.701Z,33.70
2018-12-26T18:57:44.712Z,37.67
2018-12-26T19:00:14.836Z,36.93
2018-12-26T19:02:44.777Z,36.20
2018-12-26T19:05:15.864Z,39.70
2018-12-26T19:07:45.817Z,35.30
2018-12-26T19:10:15.683Z,41.20
2018-12-26T19:12:45.735Z,34.23
2018-12-26T19:15:15.575Z,36.97
2018-12-26T19:17:45.432Z,33.50
2018-12-26T19:20:15.368Z,31.40
2018-12-26T19:22:45.259Z,35.30
2018-12-26T19:25:15.193Z,43.50
2018-12-26T19:27:45.132Z,38.70
2018-12-26T19:30:14.999Z,40.23
2018-12-26T19:32:44.926Z,40.90
2018-12-26T19:35:15.628Z,41.03
2018-12-26T19:37:45.572Z,37.93
2018-12-26T19:40:15.586Z,39.90
2018-12-26T19:42:45.530Z,39.17
2018-12-26T19:45:15.368Z,42.50
2018-12-26T19:47:45.257Z,41.07
2018-12-26T19:50:15.223Z,38.80
2018-12-26T19:52:45.064Z,36.90
2018-12-26T19:55:15.067Z,37.23
2018-12-26T19:57:45.048Z,38.50
2018-12-26T20:00:14.909Z,43.03
2018-12-26T20:02:44.837Z,35.07
2018-12-26T20:05:15.012Z,32.70
2018-12-26T20:07:44.998Z,33.27
2018-12-26T20:10:14.859Z,32.90
2018-12-26T20:12:44.899Z,30.50
2018-12-26T20:15:14.760Z,29.50
2018-12-26T20:17:44.645Z,34.83
2018-12-26T20:20:14.836Z,30.60
2018-12-26T20:22:44.734Z,31.03
2018-12-26T20:25:14.612Z,30.27
2018-12-26T20:27:44.693Z,29.30
2018-12-26T20:30:14.951Z,29.00
2018-12-26T20:32:45.004Z,31.60
2018-12-26T20:35:15.380Z,28.90
2018-12-26T20:37:45.596Z,30.70
2018-12-26T20:40:15.944Z,30.83
2018-12-26T20:42:46.464Z,31.07
2018-12-26T20:45:16.933Z,30.47
2018-12-26T20:47:47.420Z,28.43
2018-12-26T20:50:18.018Z,26.83
2018-12-26T20:52:48.516Z,26.40
2018-12-26T20:55:18.987Z,24.90
2018-12-26T20:57:49.617Z,23.97
2018-12-26T21:00:20.136Z,24.27
2018-12-26T21:02:50.636Z,26.10
2018-12-26T21:05:21.096Z,26.40
2018-12-26T21:07:51.366Z,26.43
2018-12-26T21:10:21.256Z,24.33
2018-12-26T21:12:51.241Z,24.03
2018-12-26T21:15:22.818Z,24.17
2018-12-26T21:17:52.588Z,21.90
2018-12-26T21:20:22.544Z,21.17
2018-12-26T21:22:52.437Z,23.37
2018-12-26T21:25:22.321Z,24.07
2018-12-26T21:27:52.251Z,24.97
2018-12-26T21:30:22.126Z,25.10
2018-12-26T21:32:52.053Z,22.43
2018-12-26T21:35:22.101Z,23.13
2018-12-26T21:37:52.168Z,22.47
2018-12-26T21:40:22.015Z,24.47
2018-12-26T21:42:51.985Z,22.63
2018-12-26T21:45:23.820Z,25.70
2018-12-26T21:47:53.320Z,21.63
2018-12-26T21:50:23.315Z,23.10
2018-12-26T21:52:53.167Z,22.30
2018-12-26T21:55:24.120Z,22.07
2018-12-26T21:57:54.131Z,20.03
2018-12-26T22:00:24.108Z,20.77
2018-12-26T22:02:53.980Z,22.13
2018-12-26T22:05:23.940Z,21.07
2018-12-26T22:07:53.807Z,20.77
2018-12-26T22:10:23.653Z,20.33
2018-12-26T22:12:53.656Z,18.40
2018-12-26T22:15:23.613Z,18.10
2018-12-26T22:17:53.474Z,18.73
2018-12-26T22:20:23.446Z,18.83
2018-12-26T22:22:53.266Z,21.90
2018-12-26T22:25:23.128Z,24.73
2018-12-26T22:27:53.056Z,21.60
2018-12-26T22:30:23.012Z,20.63
2018-12-26T22:32:52.874Z,23.60
2018-12-26T22:35:22.804Z,20.77
2018-12-26T22:37:52.707Z,20.70
2018-12-26T22:40:22.554Z,18.93
2018-12-26T22:42:52.504Z,20.20
2018-12-26T22:45:22.360Z,22.50
2018-12-26T22:47:52.251Z,19.97
2018-12-26T22:50:22.199Z,19.87
2018-12-26T22:52:52.136Z,18.17
2018-12-26T22:55:22.015Z,20.97
2018-12-26T22:57:52.014Z,18.03
2018-12-26T23:00:33.467Z,22.93
2018-12-26T23:03:03.540Z,21.37
2018-12-26T23:05:33.491Z,24.30
2018-12-26T23:08:03.394Z,19.53
2018-12-26T23:10:33.305Z,20.33
2018-12-26T23:13:03.172Z,21.23
2018-12-26T23:15:32.997Z,22.13
2018-12-26T23:18:04.187Z,20.30
2018-12-26T23:20:34.073Z,22.00
2018-12-26T23:23:04.030Z,22.33
2018-12-26T23:25:33.982Z,22.83
2018-12-26T23:28:03.877Z,19.37
2018-12-26T23:30:33.753Z,21.13
2018-12-26T23:33:03.848Z,22.73
2018-12-26T23:35:33.711Z,21.93
2018-12-26T23:38:03.605Z,18.37
2018-12-26T23:40:33.591Z,21.87
2018-12-26T23:43:03.428Z,25.53
2018-12-26T23:45:33.288Z,23.23
2018-12-26T23:48:03.237Z,23.10
2018-12-26T23:50:33.089Z,23.67
2018-12-26T23:53:02.927Z,24.73
2018-12-26T23:55:32.843Z,24.80
2018-12-26T23:58:02.740Z,28.27
